TAF KMER
KMER 081725Z 0818/0918 VRB04KT 2SM BR OVC010 FM081900 VRB04KT 5SM HZ BKN012 FM082200 VRB04KT P6SM BKN050 FM090900 VRB03KT 5SM BR OVC023 PROB30 0909/0911 2SM -SHRA BR OVC015 FM091200 VRB03KT 5SM SHRA BR OVC010 PROB30 0913/0915 2SM SHRA BR OVC008=
METAR KMER
WC KMER
WS KMER
WV KMER